HOM weather

Homer Airport
Homer, Alaska, United States

Public forecast

Using degrees Fahrenheit for public forecast. Weather courtesy of forecast.io.

Current aviation weather report (METAR) for Homer Airport

Retrieved 2019/12/13 03:53 UTC (57 minutes ago):

PAHO 130353Z 00000KT 10SM BKN070 05/02 A2910 RMK AO2 SLP854 T00500017

Aviation forecast (TAF) for Homer Airport

Retrieved 2019-12-13 00:24 UTC (4 hours ago):

TAF PAHO 122321Z 1300/1324 04008KT P6SM VCSH BKN060